createdAt,value
2022-09-17T00:03:03.707Z,66.90
2022-09-17T00:08:09.904Z,67.10
2022-09-17T00:13:13.477Z,67.10
2022-09-17T00:18:17.197Z,67.10
2022-09-17T00:23:20.613Z,67.50
2022-09-17T00:28:24.135Z,67.40
2022-09-17T00:33:27.759Z,67.20
2022-09-17T00:38:31.585Z,67.20
2022-09-17T00:43:51.345Z,67.30
2022-09-17T00:48:55.822Z,67.10
2022-09-17T00:54:02.923Z,67.70
2022-09-17T00:59:07.578Z,67.10
2022-09-17T01:04:31.248Z,67.10
2022-09-17T01:10:00.149Z,67.10
2022-09-17T01:15:10.942Z,67.10
2022-09-17T01:20:27.351Z,67.10
2022-09-17T01:26:01.672Z,67.00
2022-09-17T01:31:30.825Z,67.00
2022-09-17T01:36:45.554Z,67.00
2022-09-17T01:41:57.302Z,67.00
2022-09-17T01:47:27.491Z,67.00
2022-09-17T01:52:36.238Z,67.00
2022-09-17T01:58:06.070Z,66.60
2022-09-17T02:03:32.494Z,67.00
2022-09-17T02:08:42.565Z,67.00
2022-09-17T02:14:06.862Z,66.90
2022-09-17T02:19:31.946Z,66.90
2022-09-17T02:24:45.429Z,66.90
2022-09-17T02:29:49.456Z,67.30
2022-09-17T02:34:53.488Z,66.90
2022-09-17T02:39:57.136Z,66.90
2022-09-17T02:45:29.294Z,67.00
2022-09-17T02:51:18.545Z,67.00
2022-09-17T02:56:46.833Z,67.50
2022-09-17T03:01:53.374Z,66.90
2022-09-17T03:06:59.759Z,66.90
2022-09-17T03:12:04.045Z,67.50
2022-09-17T03:17:07.566Z,66.90
2022-09-17T03:22:11.702Z,66.90
2022-09-17T03:27:15.224Z,67.20
2022-09-17T03:32:18.640Z,66.90
2022-09-17T03:37:22.572Z,66.90
2022-09-17T03:42:25.991Z,66.90
2022-09-17T03:47:29.407Z,66.90
2022-09-17T03:52:33.034Z,66.80
2022-09-17T03:57:36.554Z,66.80
2022-09-17T04:02:40.113Z,66.90
2022-09-17T04:07:43.601Z,67.00
2022-09-17T04:12:47.426Z,67.10
2022-09-17T04:17:50.943Z,67.10
2022-09-17T04:22:54.978Z,67.20
2022-09-17T04:28:05.814Z,67.00
2022-09-17T04:33:16.830Z,67.00
2022-09-17T04:38:22.523Z,67.20
2022-09-17T04:43:26.149Z,67.90
2022-09-17T04:48:32.227Z,68.70
2022-09-17T04:53:36.943Z,69.10
2022-09-17T04:58:40.393Z,69.90
2022-09-17T05:03:44.120Z,70.90
2022-09-17T05:08:47.540Z,71.50
2022-09-17T05:13:51.058Z,71.00
2022-09-17T05:18:54.919Z,71.20
2022-09-17T05:24:02.199Z,71.00
2022-09-17T05:29:05.817Z,71.10
2022-09-17T05:34:11.350Z,71.30
2022-09-17T05:39:15.134Z,71.50
2022-09-17T05:44:19.656Z,72.20
2022-09-17T05:49:23.177Z,72.30
2022-09-17T05:54:26.697Z,72.30
2022-09-17T05:59:30.114Z,72.10
2022-09-17T06:04:35.041Z,70.00
2022-09-17T06:09:43.727Z,69.70
2022-09-17T06:14:48.616Z,69.10
2022-09-17T06:19:53.067Z,69.20
2022-09-17T06:24:58.023Z,69.30
2022-09-17T06:30:03.012Z,68.70
2022-09-17T06:35:07.681Z,68.80
2022-09-17T06:40:11.340Z,68.80
2022-09-17T06:45:16.992Z,69.00
2022-09-17T06:50:21.287Z,71.10
2022-09-17T06:55:25.934Z,71.50
2022-09-17T07:00:30.488Z,71.30
2022-09-17T07:05:36.980Z,70.60
2022-09-17T07:10:42.741Z,70.30
2022-09-17T07:15:59.857Z,70.10
2022-09-17T07:21:06.134Z,69.40
2022-09-17T07:26:17.089Z,69.70
2022-09-17T07:31:20.505Z,69.50
2022-09-17T07:36:23.982Z,69.50
2022-09-17T07:41:28.024Z,69.30
2022-09-17T07:46:32.600Z,69.30
2022-09-17T07:51:36.083Z,69.20
2022-09-17T07:56:39.499Z,69.30
2022-09-17T08:01:43.017Z,68.90
2022-09-17T08:06:49.202Z,68.70
2022-09-17T08:11:56.166Z,69.10
2022-09-17T08:17:00.950Z,68.70
2022-09-17T08:22:06.432Z,68.60
2022-09-17T08:27:10.047Z,68.60
2022-09-17T08:32:13.798Z,68.40
2022-09-17T08:37:21.275Z,68.30
2022-09-17T08:42:55.263Z,68.30
2022-09-17T08:48:08.582Z,68.20
2022-09-17T08:53:39.071Z,68.20
2022-09-17T08:58:59.988Z,67.90
2022-09-17T09:04:08.011Z,67.90
2022-09-17T09:09:16.403Z,67.90
2022-09-17T09:14:34.269Z,67.70
2022-09-17T09:19:47.227Z,67.70
2022-09-17T09:25:24.946Z,67.50
2022-09-17T09:30:52.703Z,67.60
2022-09-17T09:35:57.144Z,67.40
2022-09-17T09:41:14.484Z,67.60
2022-09-17T09:46:48.635Z,67.30
2022-09-17T09:52:04.301Z,67.40
2022-09-17T09:57:14.099Z,67.30
2022-09-17T10:02:20.891Z,67.20
2022-09-17T10:07:24.685Z,67.20
2022-09-17T10:12:28.217Z,67.20
2022-09-17T10:17:32.955Z,67.10
2022-09-17T10:22:47.334Z,66.90
2022-09-17T10:27:51.255Z,67.00
2022-09-17T10:33:29.008Z,67.20
2022-09-17T10:38:41.044Z,66.90
2022-09-17T10:43:47.863Z,66.80
2022-09-17T10:49:02.280Z,67.10
2022-09-17T10:54:19.669Z,66.20
2022-09-17T10:59:40.074Z,66.80
2022-09-17T11:05:02.730Z,66.80
2022-09-17T11:10:40.431Z,66.80
2022-09-17T11:16:00.769Z,66.10
2022-09-17T11:21:26.157Z,66.40
2022-09-17T11:27:09.177Z,66.70
2022-09-17T11:32:22.836Z,66.40
2022-09-17T11:37:38.836Z,66.70
2022-09-17T11:42:51.772Z,66.40
2022-09-17T11:48:21.084Z,66.70
2022-09-17T11:53:27.469Z,66.50
2022-09-17T11:58:56.722Z,66.20
2022-09-17T12:04:25.397Z,66.10
2022-09-17T12:09:34.006Z,66.00
2022-09-17T12:14:50.729Z,66.00
2022-09-17T12:20:02.864Z,65.50
2022-09-17T12:25:13.631Z,66.00
2022-09-17T12:30:23.071Z,65.90
2022-09-17T12:36:10.325Z,66.20
2022-09-17T12:41:21.506Z,65.90
2022-09-17T12:46:52.521Z,66.00
2022-09-17T12:52:00.163Z,65.80
2022-09-17T12:57:32.951Z,66.10
2022-09-17T13:02:58.644Z,65.70
2022-09-17T13:08:33.003Z,65.50
2022-09-17T13:14:02.420Z,65.50
2022-09-17T13:19:40.521Z,65.80
2022-09-17T13:24:47.795Z,65.50
2022-09-17T13:29:54.838Z,65.60
2022-09-17T13:35:15.263Z,65.60
2022-09-17T13:40:32.585Z,65.50
2022-09-17T13:46:00.674Z,65.70
2022-09-17T13:51:31.084Z,65.40
2022-09-17T13:56:43.448Z,65.40
2022-09-17T14:02:33.287Z,65.40
2022-09-17T14:07:51.914Z,65.50
2022-09-17T14:13:06.660Z,65.70
2022-09-17T14:18:43.777Z,65.30
2022-09-17T14:24:22.896Z,65.30
2022-09-17T14:29:54.221Z,65.20
2022-09-17T14:35:19.762Z,65.50
2022-09-17T14:40:27.965Z,65.20
2022-09-17T14:45:43.466Z,65.50
2022-09-17T14:50:47.487Z,65.80
2022-09-17T14:56:06.800Z,65.30
2022-09-17T15:01:32.919Z,65.10
2022-09-17T15:06:37.460Z,65.00
2022-09-17T15:11:47.936Z,65.00
2022-09-17T15:17:01.869Z,65.00
2022-09-17T15:22:25.211Z,65.10
2022-09-17T15:27:39.926Z,65.10
2022-09-17T15:33:01.353Z,65.00
2022-09-17T15:38:29.019Z,65.30
2022-09-17T15:43:34.515Z,65.00
2022-09-17T15:48:39.858Z,65.00
2022-09-17T15:53:52.751Z,65.30
2022-09-17T15:59:04.891Z,65.00
2022-09-17T16:04:19.154Z,65.30
2022-09-17T16:09:41.727Z,64.90
2022-09-17T16:14:48.881Z,65.00
2022-09-17T16:19:53.066Z,65.00
2022-09-17T16:24:56.689Z,65.30
2022-09-17T16:30:09.608Z,65.00
2022-09-17T16:35:17.246Z,65.40
2022-09-17T16:40:22.788Z,65.00
2022-09-17T16:45:28.990Z,65.00
2022-09-17T16:50:34.564Z,64.90
2022-09-17T16:55:39.100Z,65.00
2022-09-17T17:00:43.790Z,65.00
2022-09-17T17:05:47.781Z,65.30
2022-09-17T17:10:51.299Z,64.90
2022-09-17T17:15:55.681Z,65.30
2022-09-17T17:21:06.487Z,64.90
2022-09-17T17:26:10.661Z,65.00
2022-09-17T17:31:15.137Z,65.00
2022-09-17T17:36:19.033Z,64.90
2022-09-17T17:41:25.829Z,64.90
2022-09-17T17:46:30.451Z,65.00
2022-09-17T17:51:34.928Z,65.00
2022-09-17T17:56:38.849Z,65.60
2022-09-17T18:01:42.725Z,64.90
2022-09-17T18:06:49.062Z,65.00
2022-09-17T18:11:52.998Z,65.00
2022-09-17T18:16:57.993Z,65.00
2022-09-17T18:22:02.655Z,65.30
2022-09-17T18:27:06.421Z,65.00
2022-09-17T18:32:10.765Z,65.10
2022-09-17T18:37:17.760Z,65.10
2022-09-17T18:42:24.043Z,65.00
2022-09-17T18:47:33.519Z,65.00
2022-09-17T18:52:37.123Z,65.00
2022-09-17T18:57:53.960Z,65.30
2022-09-17T19:02:57.477Z,65.00
2022-09-17T19:08:01.295Z,65.00
2022-09-17T19:13:05.327Z,65.00
2022-09-17T19:18:10.590Z,65.00
2022-09-17T19:23:17.489Z,65.40
2022-09-17T19:28:27.920Z,65.00
2022-09-17T19:33:34.976Z,65.00
2022-09-17T19:38:42.483Z,64.90
2022-09-17T19:43:56.305Z,65.00
2022-09-17T19:49:00.900Z,64.90
2022-09-17T19:54:06.958Z,65.30
2022-09-17T19:59:11.706Z,65.00
2022-09-17T20:04:18.790Z,64.90
2022-09-17T20:09:26.626Z,64.90
2022-09-17T20:14:30.357Z,65.00
2022-09-17T20:19:33.977Z,65.30
2022-09-17T20:24:40.318Z,65.00
2022-09-17T20:29:43.882Z,64.90
2022-09-17T20:34:52.533Z,65.30
2022-09-17T20:39:56.393Z,64.90
2022-09-17T20:45:03.260Z,65.00
2022-09-17T20:50:16.945Z,64.90
2022-09-17T20:55:25.536Z,65.00
2022-09-17T21:00:29.775Z,64.90
2022-09-17T21:05:41.410Z,64.90
2022-09-17T21:10:45.411Z,64.90
2022-09-17T21:15:59.104Z,64.80
2022-09-17T21:21:08.238Z,65.50
2022-09-17T21:26:20.201Z,64.90
2022-09-17T21:31:39.633Z,64.90
2022-09-17T21:36:48.310Z,65.40
2022-09-17T21:41:51.869Z,64.90
2022-09-17T21:46:57.897Z,64.80
2022-09-17T21:52:01.575Z,64.80
2022-09-17T21:57:05.299Z,64.80
2022-09-17T22:02:10.767Z,64.80
2022-09-17T22:07:14.389Z,65.10
2022-09-17T22:12:17.908Z,65.20
2022-09-17T22:17:23.474Z,64.80
2022-09-17T22:22:26.995Z,64.70
2022-09-17T22:27:31.238Z,65.10
2022-09-17T22:32:37.735Z,64.70
2022-09-17T22:37:41.862Z,64.80
2022-09-17T22:42:53.265Z,64.70
2022-09-17T22:47:57.029Z,64.70
2022-09-17T22:53:00.606Z,65.00
2022-09-17T22:58:04.125Z,64.70
2022-09-17T23:03:07.725Z,64.80
2022-09-17T23:08:11.473Z,64.30
2022-09-17T23:13:14.995Z,64.60
2022-09-17T23:18:19.231Z,64.70
2022-09-17T23:23:24.577Z,64.70
2022-09-17T23:28:28.627Z,64.70
2022-09-17T23:33:32.049Z,64.70
2022-09-17T23:38:36.282Z,64.70
2022-09-17T23:43:39.905Z,64.70
2022-09-17T23:48:44.144Z,64.60
2022-09-17T23:53:48.481Z,64.60
2022-09-17T23:58:53.387Z,64.60
